Time;durP1;ratioP1;P1;durP2;ratioP2;P2;SDS_P1;SDS_P2;PMS_P1;PMS_P2;Temp;Humidity;BMP_temperature;BMP_pressure;BME280_temperature;BME280_humidity;BME280_pressure;Samples;Min_cycle;Max_cycle;Signal;HPM_P1;HPM_P2
2022/08/31 00:04:51;;;;;;;16.75;13.02;;;22.60;99.90;;;;;;5118784;27;20027;-58
2022/08/31 00:07:17;;;;;;;16.05;13.80;;;22.60;99.90;;;;;;5073159;28;20043;-58
2022/08/31 00:09:42;;;;;;;16.65;13.70;;;22.50;99.90;;;;;;5112381;28;20493;-58
2022/08/31 00:12:08;;;;;;;15.32;12.82;;;22.60;99.90;;;;;;5114425;28;20028;-56
2022/08/31 00:14:34;;;;;;;18.92;13.13;;;22.60;99.90;;;;;;5114657;28;20417;-58
2022/08/31 00:17:00;;;;;;;16.20;13.27;;;22.60;99.90;;;;;;5093821;28;20491;-57
2022/08/31 00:19:26;;;;;;;15.38;13.77;;;22.60;99.90;;;;;;5113691;28;20098;-57
2022/08/31 00:21:51;;;;;;;15.30;13.70;;;22.60;99.90;;;;;;5112276;28;20031;-56
2022/08/31 00:24:17;;;;;;;18.20;13.45;;;22.60;99.90;;;;;;5113928;28;20084;-56
2022/08/31 00:26:43;;;;;;;18.45;13.48;;;22.60;99.90;;;;;;5118081;28;20048;-58
2022/08/31 00:29:10;;;;;;;15.75;14.05;;;22.60;99.90;;;;;;5044253;28;20139;-57
2022/08/31 00:31:36;;;;;;;17.05;12.48;;;22.50;99.90;;;;;;5111934;28;20028;-56
2022/08/31 00:34:02;;;;;;;14.85;13.25;;;22.50;99.90;;;;;;5111600;28;20394;-57
2022/08/31 00:36:28;;;;;;;17.42;12.43;;;22.50;99.90;;;;;;5113950;28;20032;-56
2022/08/31 00:38:55;;;;;;;13.85;12.45;;;22.50;99.90;;;;;;5111824;28;20031;-58
2022/08/31 00:41:25;;;;;;;16.98;13.30;;;22.50;99.90;;;;;;5112355;28;20077;-58
2022/08/31 00:44:00;;;;;;;20.60;13.40;;;22.50;99.90;;;;;;5112306;28;20024;-58
2022/08/31 00:46:32;;;;;;;16.92;12.60;;;22.50;99.90;;;;;;5025461;28;20040;-57
2022/08/31 00:49:02;;;;;;;13.95;12.48;;;22.50;99.90;;;;;;5109305;28;20051;-57
2022/08/31 00:51:31;;;;;;;15.20;13.48;;;22.50;99.90;;;;;;5080667;28;20032;-58
2022/08/31 00:53:57;;;;;;;19.17;13.40;;;22.50;99.90;;;;;;5114345;28;20032;-56
2022/08/31 00:56:24;;;;;;;15.57;12.85;;;22.50;99.90;;;;;;5111704;28;20506;-58
2022/08/31 00:58:50;;;;;;;15.88;13.82;;;22.50;99.90;;;;;;5119456;27;20035;-56
2022/08/31 01:01:19;;;;;;;15.77;13.30;;;22.40;99.90;;;;;;5113209;27;20379;-59
2022/08/31 01:03:46;;;;;;;14.90;13.30;;;22.40;99.90;;;;;;5115831;27;20027;-57
2022/08/31 01:06:13;;;;;;;19.13;13.15;;;22.50;99.90;;;;;;5119641;27;20112;-56
2022/08/31 01:08:40;;;;;;;19.27;12.57;;;22.40;99.90;;;;;;5117809;27;20042;-58
2022/08/31 01:11:07;;;;;;;20.90;14.00;;;22.40;99.90;;;;;;5116308;27;20035;-57
2022/08/31 01:13:33;;;;;;;14.88;12.27;;;22.40;99.90;;;;;;5116161;27;20030;-58
2022/08/31 01:16:04;;;;;;;16.70;12.20;;;22.40;99.90;;;;;;5116190;27;20036;-57
2022/08/31 01:18:32;;;;;;;13.70;11.67;;;22.40;99.90;;;;;;5117917;27;20031;-58
2022/08/31 01:21:03;;;;;;;14.65;12.38;;;22.40;99.90;;;;;;5110211;28;20283;-56
2022/08/31 01:23:33;;;;;;;14.95;12.30;;;22.30;99.90;;;;;;5118659;27;20027;-58
2022/08/31 01:26:01;;;;;;;16.15;11.80;;;22.30;99.90;;;;;;5061053;28;20458;-59
2022/08/31 01:28:27;;;;;;;17.10;12.18;;;22.20;99.90;;;;;;5059875;28;20028;-58
2022/08/31 01:31:04;;;;;;;15.13;12.35;;;22.30;99.90;;;;;;5038490;28;20035;-57
2022/08/31 01:33:31;;;;;;;18.20;12.35;;;22.30;99.90;;;;;;5030196;28;20045;-56
2022/08/31 01:35:57;;;;;;;15.90;13.27;;;;;;;;;;5029938;28;20042;-58
2022/08/31 01:38:23;;;;;;;16.02;12.93;;;22.00;99.90;;;;;;5032450;28;20069;-58
2022/08/31 01:40:53;;;;;;;17.77;13.63;;;22.00;99.90;;;;;;5001578;28;20081;-56
2022/08/31 01:43:19;;;;;;;23.30;14.02;;;22.10;99.90;;;;;;5031068;28;20038;-57
2022/08/31 01:45:45;;;;;;;18.52;13.30;;;22.00;99.90;;;;;;5031143;28;20041;-57
2022/08/31 01:48:11;;;;;;;14.40;12.90;;;22.10;99.90;;;;;;5032296;28;20056;-57
2022/08/31 01:50:37;;;;;;;17.33;15.23;;;22.10;99.90;;;;;;5029532;28;20064;-57
2022/08/31 01:53:03;;;;;;;20.42;17.13;;;21.90;99.90;;;;;;5026148;28;20048;-58
2022/08/31 01:55:29;;;;;;;29.02;21.10;;;21.80;99.90;;;;;;5028907;28;20049;-57
2022/08/31 01:57:59;;;;;;;33.85;21.38;;;21.70;99.90;;;;;;5075531;28;20086;-57
2022/08/31 02:00:27;;;;;;;17.60;15.43;;;21.60;99.90;;;;;;5066567;28;20025;-57
2022/08/31 02:02:56;;;;;;;22.33;16.20;;;21.40;99.90;;;;;;5085885;28;20051;-60
2022/08/31 02:05:21;;;;;;;24.20;17.08;;;21.40;99.90;;;;;;5112269;27;20031;-58
2022/08/31 02:07:47;;;;;;;21.95;15.45;;;21.50;99.90;;;;;;5115881;27;20547;-57
2022/08/31 02:10:13;;;;;;;19.40;16.20;;;21.50;99.90;;;;;;5114346;27;20024;-56
2022/08/31 02:12:39;;;;;;;22.88;15.65;;;21.50;99.90;;;;;;5120253;27;20096;-58
2022/08/31 02:15:05;;;;;;;24.73;16.77;;;21.40;99.90;;;;;;5113238;28;20445;-56
2022/08/31 02:17:31;;;;;;;21.10;16.65;;;21.30;99.90;;;;;;5110956;27;20031;-56
2022/08/31 02:19:57;;;;;;;21.13;15.13;;;21.30;99.90;;;;;;5117067;27;20019;-58
2022/08/31 02:22:22;;;;;;;27.73;17.52;;;21.30;99.90;;;;;;5114059;27;20518;-56
2022/08/31 02:24:48;;;;;;;22.30;16.83;;;21.10;99.90;;;;;;5113824;28;20059;-56
2022/08/31 02:27:14;;;;;;;26.75;17.73;;;21.30;99.90;;;;;;5115653;27;20142;-58
2022/08/31 02:29:40;;;;;;;25.67;17.25;;;21.30;99.90;;;;;;5082043;27;20509;-59
2022/08/31 02:32:05;;;;;;;24.35;16.90;;;21.30;99.90;;;;;;5115030;27;20446;-57
2022/08/31 02:34:31;;;;;;;20.92;16.60;;;21.30;99.90;;;;;;5117910;27;20030;-56
2022/08/31 02:36:57;;;;;;;23.20;16.67;;;21.40;99.90;;;;;;5114931;27;20071;-59
2022/08/31 02:39:23;;;;;;;19.10;15.27;;;21.40;99.90;;;;;;5115949;27;20015;-57
2022/08/31 02:41:49;;;;;;;20.38;15.90;;;21.30;99.90;;;;;;5115941;27;20031;-56
2022/08/31 02:44:15;;;;;;;19.80;15.00;;;21.30;99.90;;;;;;5115803;27;20028;-57
2022/08/31 02:46:40;;;;;;;22.30;15.55;;;21.20;99.90;;;;;;5115182;27;20494;-57
2022/08/31 02:49:06;;;;;;;16.58;14.38;;;21.20;99.90;;;;;;5113756;27;20031;-57
2022/08/31 02:51:32;;;;;;;16.67;14.65;;;21.20;99.90;;;;;;5062846;28;20040;-57
2022/08/31 02:53:58;;;;;;;19.33;15.55;;;21.20;99.90;;;;;;5076827;28;20063;-57
2022/08/31 02:56:24;;;;;;;28.05;16.08;;;21.20;99.90;;;;;;5115404;27;20486;-58
2022/08/31 02:58:53;;;;;;;23.35;15.13;;;21.30;99.90;;;;;;5116772;27;20461;-57
2022/08/31 03:01:22;;;;;;;19.15;13.77;;;21.40;99.90;;;;;;5112008;27;20054;-58
2022/08/31 03:03:48;;;;;;;25.48;14.48;;;21.40;99.90;;;;;;5118550;27;20422;-57
2022/08/31 03:06:15;;;;;;;17.55;14.02;;;21.40;99.90;;;;;;5118276;27;20114;-56
2022/08/31 03:08:41;;;;;;;16.98;13.52;;;21.40;99.90;;;;;;5118555;27;20130;-57
2022/08/31 03:11:07;;;;;;;19.50;13.82;;;21.30;99.90;;;;;;5123662;27;20127;-56
2022/08/31 03:13:36;;;;;;;18.83;14.02;;;21.30;99.90;;;;;;5115817;27;20020;-56
2022/08/31 03:16:03;;;;;;;18.25;13.35;;;21.40;99.90;;;;;;5113045;27;20043;-58
2022/08/31 03:18:28;;;;;;;17.48;13.82;;;21.40;99.90;;;;;;5078586;27;20031;-55
2022/08/31 03:20:54;;;;;;;23.05;13.70;;;21.50;99.90;;;;;;5109814;27;20037;-58
2022/08/31 03:23:20;;;;;;;18.67;13.43;;;21.50;99.90;;;;;;5114452;27;20072;-58
2022/08/31 03:25:46;;;;;;;18.95;13.90;;;21.40;99.90;;;;;;5112670;27;20048;-57
2022/08/31 03:28:12;;;;;;;20.15;13.35;;;21.50;99.90;;;;;;5077598;28;20088;-57
2022/08/31 03:30:40;;;;;;;18.98;14.20;;;21.40;99.90;;;;;;5114167;27;20050;-58
2022/08/31 03:33:06;;;;;;;17.05;14.18;;;21.40;99.90;;;;;;5113352;27;20027;-56
2022/08/31 03:35:32;;;;;;;18.17;12.32;;;21.40;99.90;;;;;;5115830;27;20043;-57
2022/08/31 03:37:58;;;;;;;17.65;12.45;;;21.40;99.90;;;;;;5116696;27;20400;-57
2022/08/31 03:40:24;;;;;;;17.45;12.48;;;21.40;99.90;;;;;;5112032;27;20015;-57
2022/08/31 03:42:50;;;;;;;17.00;12.55;;;21.30;99.90;;;;;;5077598;27;20077;-57
2022/08/31 03:45:16;;;;;;;20.48;14.80;;;21.30;99.90;;;;;;5114372;27;20026;-58
2022/08/31 03:47:42;;;;;;;22.40;15.45;;;21.10;99.90;;;;;;5031418;27;20043;-56
2022/08/31 03:50:09;;;;;;;17.77;14.27;;;21.00;99.90;;;;;;5064213;28;20394;-57
2022/08/31 03:52:37;;;;;;;19.90;14.63;;;21.00;99.90;;;;;;5120743;27;20039;-56
2022/08/31 03:55:04;;;;;;;24.23;14.30;;;20.90;99.90;;;;;;5113676;27;20173;-57
2022/08/31 03:57:30;;;;;;;15.70;13.75;;;21.00;99.90;;;;;;5062700;28;20092;-57
2022/08/31 03:59:57;;;;;;;18.40;13.88;;;21.00;99.90;;;;;;5117624;27;20526;-57
2022/08/31 04:02:23;;;;;;;18.30;13.63;;;21.00;99.90;;;;;;5117549;27;20028;-57
2022/08/31 04:04:53;;;;;;;18.70;14.20;;;20.90;99.90;;;;;;5059899;28;20042;-56
2022/08/31 04:07:19;;;;;;;14.77;12.70;;;21.00;99.90;;;;;;5059675;28;20035;-58
2022/08/31 04:09:46;;;;;;;17.02;13.10;;;21.00;99.90;;;;;;5112619;28;20031;-57
2022/08/31 04:12:13;;;;;;;14.02;12.40;;;21.10;99.90;;;;;;5115909;28;20489;-57
2022/08/31 04:14:39;;;;;;;18.05;13.32;;;21.00;99.90;;;;;;5109803;28;20034;-57
2022/08/31 04:17:05;;;;;;;18.08;13.10;;;20.90;99.90;;;;;;5111172;27;20067;-58
2022/08/31 04:19:31;;;;;;;17.25;13.85;;;20.80;99.90;;;;;;5114195;28;20114;-56
2022/08/31 04:21:56;;;;;;;17.75;12.15;;;20.90;99.90;;;;;;5076049;28;20122;-57
2022/08/31 04:24:22;;;;;;;16.85;12.68;;;21.00;99.90;;;;;;5116188;28;20032;-57
2022/08/31 04:26:50;;;;;;;16.13;13.35;;;21.00;99.90;;;;;;5114246;28;20051;-55
2022/08/31 04:29:16;;;;;;;22.80;12.15;;;21.00;99.90;;;;;;5116189;28;20027;-57
2022/08/31 04:31:42;;;;;;;17.48;11.70;;;21.10;99.90;;;;;;5031970;27;20043;-56
2022/08/31 04:34:08;;;;;;;15.35;11.68;;;20.90;99.90;;;;;;5121727;27;20047;-56
2022/08/31 04:36:35;;;;;;;14.32;12.48;;;20.90;99.90;;;;;;5122182;27;20047;-59
2022/08/31 04:39:02;;;;;;;19.10;12.88;;;20.90;99.90;;;;;;5118531;27;20051;-57
2022/08/31 04:41:30;;;;;;;17.70;12.85;;;21.00;99.90;;;;;;5118208;27;20020;-56
2022/08/31 04:43:58;;;;;;;13.52;12.13;;;21.00;99.90;;;;;;5112752;27;20106;-58
2022/08/31 04:46:24;;;;;;;16.75;12.13;;;21.10;99.90;;;;;;5114161;27;20023;-56
2022/08/31 04:48:50;;;;;;;14.63;12.23;;;21.10;99.90;;;;;;5065801;28;20047;-58
2022/08/31 04:51:21;;;;;;;18.17;12.15;;;21.10;99.90;;;;;;5117873;27;20107;-58
2022/08/31 04:53:47;;;;;;;15.80;11.52;;;21.00;99.90;;;;;;5115244;27;20669;-58
2022/08/31 04:56:17;;;;;;;15.18;12.90;;;21.10;99.90;;;;;;5085359;27;20055;-57
2022/08/31 04:58:48;;;;;;;13.10;11.70;;;21.20;99.90;;;;;;5080648;27;20051;-56
2022/08/31 05:01:17;;;;;;;14.15;12.35;;;21.10;99.90;;;;;;5109018;27;20035;-57
2022/08/31 05:03:43;;;;;;;15.63;11.93;;;21.10;99.90;;;;;;5113160;27;20130;-56
2022/08/31 05:06:16;;;;;;;19.98;11.48;;;;;;;;;;5115957;27;20106;-58
2022/08/31 05:08:42;;;;;;;13.43;11.23;;;;;;;;;;5115158;27;21735;-56
2022/08/31 05:11:09;;;;;;;19.10;12.10;;;;;;;;;;5117861;27;20031;-57
2022/08/31 05:13:36;;;;;;;15.65;10.73;;;;;;;;;;5111670;27;20027;-56
2022/08/31 05:16:04;;;;;;;15.82;10.15;;;;;;;;;;5115230;27;20406;-56
2022/08/31 05:18:30;;;;;;;18.00;11.90;;;;;;;;;;5118376;27;20548;-55
2022/08/31 05:20:56;;;;;;;16.67;11.82;;;;;;;;;;5115044;27;20383;-56
2022/08/31 05:23:22;;;;;;;19.55;12.10;;;;;;;;;;5061544;28;20498;-56
2022/08/31 05:25:48;;;;;;;14.93;11.05;;;21.50;99.90;;;;;;5114833;27;20046;-56
2022/08/31 05:28:15;;;;;;;14.43;11.20;;;21.60;99.90;;;;;;5118029;27;20027;-57
2022/08/31 05:30:44;;;;;;;15.38;11.48;;;21.60;99.90;;;;;;5116733;27;20069;-56
2022/08/31 05:33:09;;;;;;;16.85;11.38;;;21.60;99.90;;;;;;5115503;27;20054;-54
2022/08/31 05:35:36;;;;;;;14.23;11.55;;;21.70;99.90;;;;;;5027792;27;20542;-59
2022/08/31 05:38:02;;;;;;;13.95;11.50;;;22.00;99.90;;;;;;5115979;27;20027;-51
2022/08/31 05:40:28;;;;;;;15.68;11.77;;;22.10;99.90;;;;;;5118631;27;20049;-51
2022/08/31 05:42:58;;;;;;;15.20;11.73;;;;;;;;;;5117374;27;20437;-50
2022/08/31 05:45:24;;;;;;;12.50;11.18;;;;;;;;;;5116835;27;20027;-52
2022/08/31 05:47:50;;;;;;;15.63;11.85;;;;;;;;;;5116155;27;20038;-50
2022/08/31 05:50:17;;;;;;;13.95;11.57;;;;;;;;;;5119299;27;20059;-52
2022/08/31 05:52:43;;;;;;;15.38;11.73;;;;;;;;;;5118569;27;20497;-52
2022/08/31 05:55:10;;;;;;;16.15;11.02;;;;;;;;;;5065249;27;20036;-52
2022/08/31 05:57:39;;;;;;;15.88;11.98;;;;;;;;;;5115885;27;20122;-52
2022/08/31 06:00:06;;;;;;;13.98;11.27;;;22.60;99.90;;;;;;5116749;27;21033;-51
2022/08/31 06:02:32;;;;;;;17.88;12.05;;;22.60;99.90;;;;;;5064451;27;20063;-52
2022/08/31 06:04:58;;;;;;;15.52;12.38;;;22.80;99.90;;;;;;5118987;27;20046;-52
2022/08/31 06:07:24;;;;;;;14.77;11.43;;;22.70;99.90;;;;;;5114106;27;20113;-52
2022/08/31 06:09:50;;;;;;;17.25;12.00;;;22.80;99.90;;;;;;5010606;27;20028;-53
2022/08/31 06:12:18;;;;;;;14.93;11.70;;;22.90;99.90;;;;;;5113904;27;20479;-54
2022/08/31 06:14:44;;;;;;;17.83;12.35;;;23.00;99.90;;;;;;5113276;27;20395;-59
2022/08/31 06:17:10;;;;;;;14.45;11.13;;;23.00;99.90;;;;;;5113335;28;20078;-52
2022/08/31 06:19:37;;;;;;;17.23;11.32;;;23.10;99.90;;;;;;5078704;27;20048;-52
2022/08/31 06:22:03;;;;;;;14.07;11.73;;;23.00;99.90;;;;;;5114426;27;20599;-53
2022/08/31 06:24:29;;;;;;;15.75;12.05;;;23.00;99.90;;;;;;5021678;28;20111;-59
2022/08/31 06:26:56;;;;;;;16.23;12.32;;;;;;;;;;5086595;28;20126;-56
2022/08/31 06:29:22;;;;;;;16.77;12.18;;;;;;;;;;5086594;28;20072;-54
2022/08/31 06:31:48;;;;;;;15.50;11.70;;;23.10;99.90;;;;;;5090903;28;20040;-58
2022/08/31 06:34:16;;;;;;;17.88;13.18;;;;;;;;;;5085525;28;20043;-58
2022/08/31 06:36:42;;;;;;;15.90;13.23;;;;;;;;;;5089659;28;20036;-59
2022/08/31 06:39:08;;;;;;;13.05;11.52;;;;;;;;;;5089327;28;20051;-55
2022/08/31 06:41:37;;;;;;;15.60;12.65;;;23.50;99.90;;;;;;5082537;28;20035;-61
2022/08/31 06:44:09;;;;;;;15.35;12.52;;;23.60;99.90;;;;;;5088251;28;20036;-54
2022/08/31 06:46:37;;;;;;;13.32;10.98;;;23.70;99.90;;;;;;5067529;28;20028;-53
2022/08/31 06:49:04;;;;;;;15.02;11.45;;;23.70;99.90;;;;;;5086440;28;20511;-55
2022/08/31 06:51:35;;;;;;;16.90;12.20;;;23.70;99.90;;;;;;5016210;28;20032;-57
2022/08/31 06:54:02;;;;;;;13.87;11.90;;;24.10;99.90;;;;;;5070473;28;20051;-56
2022/08/31 06:56:28;;;;;;;14.90;11.23;;;24.10;99.90;;;;;;5107185;28;20295;-53
2022/08/31 06:58:54;;;;;;;15.07;12.20;;;24.30;99.90;;;;;;5110765;27;20020;-57
2022/08/31 07:01:27;;;;;;;14.95;11.32;;;24.50;99.90;;;;;;5111297;27;20403;-55
2022/08/31 07:03:55;;;;;;;16.92;12.18;;;24.70;99.90;;;;;;5114353;27;20466;-58
2022/08/31 07:06:27;;;;;;;22.13;13.25;;;24.70;99.90;;;;;;5069541;28;20512;-64
2022/08/31 07:08:56;;;;;;;18.80;11.63;;;24.80;99.90;;;;;;5113310;27;20049;-62
2022/08/31 07:11:24;;;;;;;14.70;11.00;;;;;;;;;;5117641;27;20051;-63
2022/08/31 07:13:52;;;;;;;18.05;12.48;;;25.30;99.90;;;;;;5117355;27;20035;-70
2022/08/31 07:16:20;;;;;;;14.60;11.05;;;25.70;99.90;;;;;;5112658;27;20036;-69
2022/08/31 07:18:46;;;;;;;13.43;11.27;;;25.80;99.90;;;;;;5118691;27;20034;-57
2022/08/31 07:21:24;;;;;;;15.60;11.15;;;26.20;99.90;;;;;;5112939;27;20028;-54
2022/08/31 07:23:50;;;;;;;16.38;10.85;;;26.60;99.90;;;;;;5105203;28;20036;-62
2022/08/31 07:26:21;;;;;;;11.98;9.43;;;26.50;99.90;;;;;;5112722;28;20465;-60
2022/08/31 07:28:51;;;;;;;13.30;10.25;;;;;;;;;;5116852;27;20035;-65
2022/08/31 07:31:18;;;;;;;16.48;10.52;;;;;;;;;;5120854;27;20024;-61
2022/08/31 07:33:44;;;;;;;14.45;9.48;;;28.20;99.90;;;;;;5114385;27;20032;-63
2022/08/31 07:36:14;;;;;;;13.27;9.95;;;27.60;99.90;;;;;;5112897;27;20079;-56
2022/08/31 07:44:11;;;;;;;14.35;9.80;;;28.10;99.90;;;;;;5112724;27;20043;-56
2022/08/31 07:46:38;;;;;;;10.93;9.02;;;28.30;99.90;;;;;;5112927;27;20138;-57
2022/08/31 07:49:12;;;;;;;12.25;8.77;;;28.50;99.90;;;;;;5112320;27;20023;-57
2022/08/31 07:51:50;;;;;;;15.48;10.27;;;28.70;99.90;;;;;;5114050;27;20035;-59
2022/08/31 07:54:26;;;;;;;9.73;8.73;;;28.50;99.90;;;;;;5115413;27;20111;-57
2022/08/31 07:56:59;;;;;;;12.35;9.15;;;28.80;99.90;;;;;;5115065;27;20395;-56
2022/08/31 07:59:26;;;;;;;11.55;8.50;;;28.70;99.90;;;;;;5111961;27;20114;-59
2022/08/31 08:01:54;;;;;;;13.15;8.77;;;28.90;99.90;;;;;;5113252;27;20062;-56
2022/08/31 08:04:24;;;;;;;13.85;9.23;;;28.90;99.90;;;;;;5115883;27;20032;-58
2022/08/31 08:06:54;;;;;;;12.52;8.82;;;;;;;;;;5114450;27;20044;-58
2022/08/31 08:09:28;;;;;;;10.43;9.30;;;28.90;99.90;;;;;;5043949;28;20779;-58
2022/08/31 08:11:56;;;;;;;11.90;8.75;;;28.40;99.90;;;;;;5042571;28;20512;-59
2022/08/31 08:14:26;;;;;;;11.38;8.15;;;28.20;99.90;;;;;;5046407;28;20388;-56
2022/08/31 08:16:53;;;;;;;11.93;8.95;;;28.50;99.90;;;;;;4993799;28;20132;-59
2022/08/31 08:19:19;;;;;;;11.85;9.30;;;28.70;99.90;;;;;;5046015;28;20047;-58
2022/08/31 08:21:45;;;;;;;15.75;9.07;;;28.50;99.90;;;;;;5029685;28;20040;-57
2022/08/31 08:24:12;;;;;;;11.05;9.20;;;28.30;99.90;;;;;;5027540;28;20053;-58
2022/08/31 08:26:43;;;;;;;10.90;8.95;;;28.50;99.90;;;;;;5027735;28;20055;-59
2022/08/31 08:29:10;;;;;;;10.63;8.85;;;28.40;99.90;;;;;;5023200;28;20046;-57
2022/08/31 08:31:35;;;;;;;20.40;8.45;;;28.40;99.90;;;;;;5021797;28;20036;-59
2022/08/31 08:34:01;;;;;;;9.73;8.52;;;28.60;99.90;;;;;;4992923;28;20038;-59
2022/08/31 08:36:31;;;;;;;10.02;9.02;;;28.80;99.90;;;;;;4974616;28;20054;-60
2022/08/31 08:38:57;;;;;;;10.02;8.13;;;;;;;;;;5022824;28;21943;-57
2022/08/31 08:41:25;;;;;;;12.23;8.77;;;;;;;;;;5056563;28;20072;-59
2022/08/31 08:43:52;;;;;;;13.13;8.73;;;;;;;;;;5035181;28;20127;-56
2022/08/31 08:46:31;;;;;;;12.30;8.63;;;29.40;99.90;;;;;;5040325;28;20464;-58
2022/08/31 08:49:02;;;;;;;11.65;8.05;;;29.50;99.90;;;;;;5039593;28;20045;-58
2022/08/31 08:51:37;;;;;;;10.27;8.20;;;29.50;99.90;;;;;;5037207;28;20064;-58
2022/08/31 08:54:09;;;;;;;13.45;9.57;;;29.50;99.90;;;;;;5038572;28;20034;-58
2022/08/31 08:56:45;;;;;;;10.13;8.43;;;29.70;99.90;;;;;;5038568;28;20076;-58
2022/08/31 08:59:12;;;;;;;12.93;10.07;;;29.50;99.90;;;;;;5039739;28;20053;-59
2022/08/31 09:01:38;;;;;;;11.30;8.23;;;29.50;99.90;;;;;;5027094;28;20036;-56
2022/08/31 09:04:24;;;;;;;9.02;8.15;;;29.40;99.90;;;;;;5076124;28;20058;-58
2022/08/31 09:07:03;;;;;;;21.25;16.90;;;29.30;99.90;;;;;;5080428;28;20033;-59
2022/08/31 09:09:40;;;;;;;8.60;7.70;;;29.60;99.90;;;;;;5077120;28;20561;-57
2022/08/31 09:12:37;;;;;;;10.90;7.93;;;;;;;;;;5080234;28;20525;-56
2022/08/31 09:15:14;;;;;;;9.65;7.63;;;;;;;;;;5025035;28;20045;-57
2022/08/31 09:17:40;;;;;;;10.68;8.57;;;;;;;;;;5027665;28;20128;-57
2022/08/31 09:20:07;;;;;;;10.82;7.78;;;;;;;;;;5030200;28;20033;-58
2022/08/31 09:22:45;;;;;;;10.90;7.13;;;;;;;;;;5030467;28;20079;-57
2022/08/31 09:25:12;;;;;;;10.30;7.30;;;;;;;;;;5038233;28;20100;-56
2022/08/31 09:27:56;;;;;;;8.70;7.80;;;;;;;;;;5051644;28;20033;-58
2022/08/31 09:30:39;;;;;;;9.07;6.93;;;;;;;;;;5048634;28;20110;-57
2022/08/31 09:33:06;;;;;;;8.18;6.45;;;;;;;;;;5048764;28;20037;-56
2022/08/31 09:35:39;;;;;;;8.13;6.25;;;;;;;;;;5033105;28;20060;-56
2022/08/31 09:38:09;;;;;;;8.50;6.40;;;;;;;;;;5051434;28;20071;-58
2022/08/31 09:40:48;;;;;;;10.95;6.22;;;;;;;;;;5052001;28;20179;-55
2022/08/31 09:43:21;;;;;;;11.30;5.85;;;;;;;;;;5048263;28;20514;-57
2022/08/31 09:46:00;;;;;;;8.15;5.95;;;33.30;99.90;;;;;;5051174;28;20041;-56
2022/08/31 09:48:47;;;;;;;10.52;6.38;;;;;;;;;;5050887;28;20025;-55
2022/08/31 09:51:27;;;;;;;7.75;5.32;;;;;;;;;;5070918;28;20085;-55
2022/08/31 09:56:56;;;;;;;6.80;5.45;;;;;;;;;;5103317;28;20574;-57
2022/08/31 09:59:29;;;;;;;7.55;5.50;;;;;;;;;;5099768;28;20495;-56
2022/08/31 10:01:59;;;;;;;5.97;5.10;;;33.90;99.90;;;;;;5098791;28;20024;-54
2022/08/31 10:04:31;;;;;;;8.43;6.53;;;;;;;;;;5102878;28;20032;-56
2022/08/31 10:07:12;;;;;;;6.65;5.40;;;33.80;99.90;;;;;;5100607;28;20056;-54
2022/08/31 10:09:48;;;;;;;7.20;5.63;;;33.90;99.90;;;;;;5098721;28;20043;-49
2022/08/31 10:12:20;;;;;;;6.30;5.65;;;33.40;99.90;;;;;;5103568;28;20039;-50
2022/08/31 10:14:53;;;;;;;;;;;33.60;99.90;;;;;;5102795;28;20031;-57
2022/08/31 10:17:46;;;;;;;12.35;5.85;;;33.80;99.90;;;;;;5100678;28;19919;-54
2022/08/31 10:20:25;;;;;;;7.72;5.55;;;33.70;99.90;;;;;;5009188;28;20048;-55
2022/08/31 10:22:56;;;;;;;5.93;4.78;;;33.70;99.90;;;;;;5013591;28;20623;-50
2022/08/31 10:25:30;;;;;;;9.75;5.10;;;33.80;99.90;;;;;;5009558;28;20036;-54
2022/08/31 10:28:10;;;;;;;9.10;4.70;;;;;;;;;;4991532;28;20074;-53
2022/08/31 10:30:37;;;;;;;7.18;5.03;;;;;;;;;;4990891;28;20053;-57
2022/08/31 10:33:08;;;;;;;8.63;6.60;;;;;;;;;;4990237;28;20121;-53
2022/08/31 10:35:52;;;;;;;7.07;5.60;;;;;;;;;;4989326;28;20124;-54
2022/08/31 10:38:24;;;;;;;6.72;5.10;;;;;;;;;;4991066;28;20038;-55
2022/08/31 10:41:00;;;;;;;5.28;4.25;;;33.90;99.90;;;;;;4991002;28;20038;-59
2022/08/31 10:43:52;;;;;;;7.97;5.05;;;34.20;99.90;;;;;;4990152;28;20133;-54
2022/08/31 10:46:18;;;;;;;6.40;4.82;;;34.20;99.90;;;;;;4990443;28;20052;-58
2022/08/31 10:48:54;;;;;;;6.20;4.80;;;34.30;99.90;;;;;;4992180;28;20089;-57
2022/08/31 10:51:38;;;;;;;4.93;4.20;;;34.30;99.90;;;;;;4990223;28;20065;-54
2022/08/31 10:54:23;;;;;;;4.57;4.18;;;34.50;99.90;;;;;;4991124;28;20034;-58
2022/08/31 10:57:28;;;;;;;6.15;4.53;;;34.20;99.90;;;;;;5030956;28;20055;-52
2022/08/31 11:00:00;;;;;;;5.50;4.50;;;;;;;;;;5101464;28;20111;-54
2022/08/31 11:03:05;;;;;;;6.75;4.70;;;33.70;99.90;;;;;;5097937;28;20191;-56
2022/08/31 11:05:41;;;;;;;7.30;4.55;;;34.10;99.90;;;;;;5084799;28;20027;-53
2022/08/31 11:08:13;;;;;;;22.77;17.15;;;34.20;99.90;;;;;;5100117;28;20028;-52
2022/08/31 11:10:51;;;;;;;8.18;4.60;;;34.40;99.90;;;;;;5102869;28;20115;-55
2022/08/31 11:13:37;;;;;;;7.88;5.10;;;35.00;99.90;;;;;;5106829;28;20032;-58
2022/08/31 11:16:25;;;;;;;11.00;8.57;;;35.30;99.60;;;;;;5100549;28;20052;-53
2022/08/31 11:19:15;;;;;;;5.15;4.03;;;34.90;99.90;;;;;;5103488;28;20059;-54
2022/08/31 11:22:08;;;;;;;4.72;3.92;;;35.30;99.90;;;;;;5102206;28;20032;-60
2022/08/31 11:24:42;;;;;;;5.07;3.80;;;35.50;97.90;;;;;;5045647;28;20139;-55
2022/08/31 11:27:43;;;;;;;10.60;4.47;;;36.00;97.80;;;;;;5044098;28;20045;-60
2022/08/31 11:30:23;;;;;;;6.90;4.07;;;36.00;97.10;;;;;;5046099;28;20043;-57
2022/08/31 11:33:06;;;;;;;8.48;4.43;;;36.20;96.60;;;;;;5048294;28;20040;-58
2022/08/31 11:36:09;;;;;;;5.70;4.00;;;36.10;97.50;;;;;;5048334;28;20035;-53
2022/08/31 11:38:50;;;;;;;12.07;6.70;;;35.60;96.80;;;;;;5039653;28;20640;-53
2022/08/31 11:41:47;;;;;;;8.85;6.75;;;35.40;96.60;;;;;;5035749;28;20029;-54
2022/08/31 11:44:58;;;;;;;4.72;4.10;;;35.70;98.30;;;;;;5048390;28;20029;-54
2022/08/31 11:47:27;;;;;;;8.18;4.38;;;;;;;;;;5050619;28;20045;-54
2022/08/31 11:49:54;;;;;;;8.80;5.72;;;;;;;;;;5050209;28;20056;-54
2022/08/31 11:52:23;;;;;;;11.13;7.00;;;32.60;99.90;;;;;;5049551;28;20040;-51
2022/08/31 11:54:49;;;;;;;9.88;5.57;;;32.50;99.90;;;;;;5051000;28;20108;-53
2022/08/31 11:57:30;;;;;;;8.43;4.80;;;32.00;99.90;;;;;;5053075;28;20045;-53
2022/08/31 11:59:56;;;;;;;;;;;31.70;99.90;;;;;;5047268;28;20036;-56
2022/08/31 12:02:22;;;;;;;8.32;4.50;;;31.40;99.90;;;;;;5052519;28;19908;-55
2022/08/31 12:04:50;;;;;;;10.82;4.35;;;31.60;99.90;;;;;;5048589;28;20480;-55
2022/08/31 12:07:28;;;;;;;7.05;4.50;;;31.60;99.90;;;;;;5047708;28;20683;-56
2022/08/31 12:10:00;;;;;;;8.40;4.90;;;;;;;;;;5066542;28;20407;-52
2022/08/31 12:12:44;;;;;;;9.60;5.07;;;;;;;;;;5067122;28;20040;-55
2022/08/31 12:15:20;;;;;;;10.25;4.35;;;;;;;;;;5068652;28;20040;-55
2022/08/31 12:17:59;;;;;;;8.30;4.65;;;;;;;;;;5067450;28;20040;-52
2022/08/31 12:23:48;;;;;;;7.10;4.57;;;;;;;;;;5091892;28;20563;-54
2022/08/31 12:26:30;;;;;;;8.40;4.68;;;;;;;;;;5038540;28;20056;-54
2022/08/31 12:28:56;;;;;;;9.23;4.10;;;;;;;;;;5045726;28;20041;-52
2022/08/31 12:31:22;;;;;;;9.52;4.43;;;;;;;;;;5048394;28;20045;-53
2022/08/31 12:34:07;;;;;;;6.20;4.50;;;;;;;;;;5047455;28;20044;-54
2022/08/31 12:36:35;;;;;;;7.43;4.68;;;;;;;;;;5048152;28;20569;-55
2022/08/31 12:39:11;;;;;;;8.38;4.60;;;;;;;;;;5047502;28;20037;-54
2022/08/31 12:41:45;;;;;;;5.95;4.50;;;34.00;99.90;;;;;;5048103;28;20044;-54
2022/08/31 12:44:19;;;;;;;6.10;4.38;;;33.70;99.90;;;;;;5047369;28;20098;-52
2022/08/31 12:47:02;;;;;;;9.45;5.20;;;33.80;99.90;;;;;;5009790;28;20049;-55
2022/08/31 12:50:09;;;;;;;6.60;4.50;;;34.00;99.90;;;;;;5046262;28;20056;-55
2022/08/31 12:52:48;;;;;;;6.35;4.28;;;34.10;99.90;;;;;;4964398;28;20066;-55
2022/08/31 12:55:27;;;;;;;9.05;5.53;;;34.50;99.90;;;;;;4977361;28;20050;-55
2022/08/31 12:58:20;;;;;;;9.30;4.38;;;34.70;99.90;;;;;;4925554;28;20466;-55
2022/08/31 13:00:46;;;;;;;9.23;6.95;;;34.50;99.40;;;;;;4976643;28;20180;-52
2022/08/31 13:03:15;;;;;;;7.45;5.65;;;34.30;99.30;;;;;;4971374;28;20460;-55
2022/08/31 13:05:41;;;;;;;19.90;16.70;;;33.80;99.90;;;;;;5021676;28;20168;-56
2022/08/31 13:08:23;;;;;;;21.77;17.23;;;33.90;99.90;;;;;;5023091;28;20213;-53
2022/08/31 13:10:51;;;;;;;16.23;13.73;;;33.70;99.90;;;;;;5019762;28;20120;-50
2022/08/31 13:13:25;;;;;;;8.25;5.10;;;33.80;99.80;;;;;;5018601;28;20045;-51
2022/08/31 13:15:59;;;;;;;7.70;6.03;;;33.90;99.80;;;;;;5024776;28;20041;-50
2022/08/31 13:18:28;;;;;;;5.95;4.78;;;34.20;99.70;;;;;;5025716;28;20088;-52
2022/08/31 13:21:04;;;;;;;6.35;4.53;;;34.60;99.40;;;;;;5017929;28;20030;-51
2022/08/31 13:23:43;;;;;;;14.35;6.43;;;34.90;98.80;;;;;;5018709;28;20777;-51
2022/08/31 13:26:26;;;;;;;8.10;4.50;;;34.30;98.80;;;;;;5048077;28;20051;-51
2022/08/31 13:28:55;;;;;;;5.75;4.38;;;34.30;98.80;;;;;;5067270;28;20408;-51